Narrabarba, Australia

10:27 PM AEDT on February 25, 2017 (GMT +1100)
Lakeside Drive, Mallacoota, Victoria. | | Change Station

Elev 79 ft 37.54 °S, 149.75 °E | Updated 16 seconds ago

Overcast
Overcast
64.4 °F
Feels Like 64.4 °F
N
4.2
Wind Variable Wind from East
Gusts 7.4 mph

Today
High -- | Low -- °F
--% Chance of Precip.
Yesterday
High -- | Low -- °F
Precip. -- in
Pressure 30.24 in
Visibility -9999.0 miles
Clouds Scattered Clouds 5000 ft
Overcast 7600 ft
Dew Point 54 °F
Humidity 69%
Rainfall 0.02 in
Snow Depth Not available.
6:41 AM 7:45 PM
Waning Crescent, 2% visible
METAR YMER 251100Z AUTO 14008KT //// // SCT050 OVC076 19/11 Q1024
Pressure 30.24 in
Visibility -9999.0 miles
Clouds Scattered Clouds 5000 ft
Overcast 7600 ft
Dew Point 54 °F
Humidity 69%
Rainfall 0.02 in
Snow Depth Not available.
6:41 AM 7:45 PM
Waning Crescent, 2% visible
METAR YMER 251100Z AUTO 14008KT //// // SCT050 OVC076 19/11 Q1024

Get Your Daily Forecast Email!

Thanks for signing up!

Be on the lookout for a verification email in your inbox.

You'll start receiving the daily forecast at 8 AM.

×

10-Day Weather Forecast

×

Almanac

Astronomy

Feb. 25, 2017 Rise Set
Actual Time
Civil Twilight
Nautical Twilight
Astronomical Twilight
Moon
Length of Visible Light
Length of Day
Tomorrow will be .
, % of the Moon is Illuminated

Today's Extremes

Country Highs Country Lows

Community

WunderPhotos

Upload Photos

1,962,540 photos uploaded!

WunderBlog® & News

Nearby

Air Quality

  Air Quality AQ Index Pollutant
Not available.

Snow Depth

Station Depth Elevation

Earthquake Activity

City Distance Mag. Time & Date
Minimum magnitude displayed is 2.5.

Coastal Water Temperatures

Place Temperature

Stations

Nearby Weather Stations

Station Location Temp. Windchill Dew Point Humidity Wind Precip. Elev Updated Type